Time;durP1;ratioP1;P1;durP2;ratioP2;P2;SDS_P1;SDS_P2;PMS_P1;PMS_P2;Temp;Humidity;BMP_temperature;BMP_pressure;BME280_temperature;BME280_humidity;BME280_pressure;Samples;Min_cycle;Max_cycle;Signal;HPM_P1;HPM_P2
2023/10/28 00:01:13;;;;;;;35.10;31.20;;;;;;;;;;5093308;28;20482;-58
2023/10/28 00:03:40;;;;;;;37.25;30.75;;;;;;;;;;5093736;28;20080;-58
2023/10/28 00:06:07;;;;;;;35.47;30.08;;;;;;;;;;5091767;28;20076;-60
2023/10/28 00:08:33;;;;;;;37.05;31.25;;;;;;;;;;5093610;28;20108;-60
2023/10/28 00:11:00;;;;;;;41.45;30.60;;;;;;;;;;5092942;28;20162;-58
2023/10/28 00:13:26;;;;;;;37.80;31.00;;;;;;;;;;5093378;28;20040;-60
2023/10/28 00:15:52;;;;;;;35.88;31.10;;;;;;;;;;5092947;28;20366;-58
2023/10/28 00:18:18;;;;;;;36.80;30.52;;;;;;;;;;5092839;28;20020;-60
2023/10/28 00:20:44;;;;;;;33.95;30.35;;;;;;;;;;5092759;28;20020;-58
2023/10/28 00:23:11;;;;;;;35.53;30.77;;;;;;;;;;5093557;28;20024;-61
2023/10/28 00:25:37;;;;;;;32.50;29.27;;;;;;;;;;5093115;28;20410;-60
2023/10/28 00:28:04;;;;;;;34.50;30.65;;;;;;;;;;5091514;28;20028;-59
2023/10/28 00:30:30;;;;;;;35.28;30.83;;;;;;;;;;5091018;28;20031;-60
2023/10/28 00:32:59;;;;;;;33.92;30.40;;;;;;;;;;5091074;28;20111;-61
2023/10/28 00:35:25;;;;;;;33.28;29.58;;;;;;;;;;5091728;28;20036;-59
2023/10/28 00:37:52;;;;;;;35.35;30.42;;;;;;;;;;5092041;28;20036;-59
2023/10/28 00:40:18;;;;;;;35.95;29.35;;;;;;;;;;5090712;28;20040;-58
2023/10/28 00:42:47;;;;;;;32.78;29.38;;;;;;;;;;5091827;28;20035;-59
2023/10/28 00:45:15;;;;;;;33.83;30.40;;;;;;;;;;5092007;28;20149;-60
2023/10/28 00:47:43;;;;;;;32.47;29.08;;;;;;;;;;5092346;28;20107;-59
2023/10/28 00:50:11;;;;;;;32.70;29.45;;;;;;;;;;5091966;28;20027;-58
2023/10/28 00:52:41;;;;;;;33.28;29.88;;;;;;;;;;5092183;28;20039;-58
2023/10/28 00:55:11;;;;;;;33.50;30.15;;;;;;;;;;5092069;28;20136;-61
2023/10/28 00:57:38;;;;;;;32.95;29.45;;;;;;;;;;5092075;28;20032;-60
2023/10/28 01:00:08;;;;;;;38.97;29.33;;;;;;;;;;5091266;28;20524;-58
2023/10/28 01:02:42;;;;;;;31.98;28.58;;;;;;;;;;5092121;28;20419;-60
2023/10/28 01:05:11;;;;;;;33.08;29.52;;;;;;;;;;5092669;28;20038;-60
2023/10/28 01:07:38;;;;;;;33.55;29.95;;;;;;;;;;5092387;28;20031;-59
2023/10/28 01:10:04;;;;;;;33.80;29.40;;;;;;;;;;5092334;28;20031;-59
2023/10/28 01:12:30;;;;;;;31.52;28.23;;;;;;;;;;5091775;28;20051;-59
2023/10/28 01:14:56;;;;;;;35.30;30.48;;;;;;;;;;5092336;28;20031;-57
2023/10/28 01:17:25;;;;;;;31.70;28.40;;;;;;;;;;5090302;28;20024;-60
2023/10/28 01:19:51;;;;;;;32.55;29.02;;;;;;;;;;5091604;28;20039;-60
2023/10/28 01:22:18;;;;;;;34.15;29.17;;;;;;;;;;5091493;28;20141;-57
2023/10/28 01:24:45;;;;;;;31.35;28.10;;;;;;;;;;5091729;28;20035;-59
2023/10/28 01:27:11;;;;;;;31.35;28.27;;;;;;;;;;5092029;28;20054;-59
2023/10/28 01:29:37;;;;;;;32.65;29.38;;;;;;;;;;5091614;28;20571;-58
2023/10/28 01:32:03;;;;;;;32.58;29.27;;;;;;;;;;5090211;28;20028;-59
2023/10/28 01:34:29;;;;;;;32.50;28.83;;;;;;;;;;5091541;28;20034;-59
2023/10/28 01:36:56;;;;;;;31.80;28.48;;;;;;;;;;5091427;28;20024;-58
2023/10/28 01:39:22;;;;;;;32.78;29.13;;;;;;;;;;5089960;28;20038;-58
2023/10/28 01:41:48;;;;;;;32.80;28.33;;;;;;;;;;5091818;28;20163;-59
2023/10/28 01:44:14;;;;;;;31.83;28.33;;;;;;;;;;5091001;28;20024;-58
2023/10/28 01:46:41;;;;;;;31.75;28.30;;;;;;;;;;5091035;28;20476;-59
2023/10/28 01:49:07;;;;;;;29.98;26.98;;;;;;;;;;5091536;28;20069;-59
2023/10/28 01:51:33;;;;;;;31.50;28.17;;;;;;;;;;5090499;28;20028;-58
2023/10/28 01:53:59;;;;;;;31.40;28.10;;;;;;;;;;5091122;28;20103;-61
2023/10/28 01:56:28;;;;;;;34.40;28.33;;;;;;;;;;5090707;28;20024;-55
2023/10/28 01:58:54;;;;;;;30.88;27.23;;;;;;;;;;5091019;28;20397;-58
2023/10/28 02:01:20;;;;;;;30.50;27.17;;;;;;;;;;5090096;28;20062;-58
2023/10/28 02:03:46;;;;;;;30.05;26.85;;;;;;;;;;5091420;28;20024;-58
2023/10/28 02:06:12;;;;;;;32.50;27.70;;;;;;;;;;5091277;28;20422;-57
2023/10/28 02:08:38;;;;;;;31.17;27.77;;;;;;;;;;5090213;28;20396;-58
2023/10/28 02:11:07;;;;;;;30.63;27.63;;;;;;;;;;5090722;28;20024;-55
2023/10/28 02:13:32;;;;;;;32.83;27.00;;;;;;;;;;5090943;28;20016;-59
2023/10/28 02:15:59;;;;;;;30.63;27.38;;;;;;;;;;5091399;28;20066;-58
2023/10/28 02:18:25;;;;;;;30.95;27.63;;;;;;;;;;5090783;28;20055;-57
2023/10/28 02:20:52;;;;;;;31.48;28.15;;;;;;;;;;5090940;28;20028;-59
2023/10/28 02:23:18;;;;;;;32.15;27.48;;;;;;;;;;5091283;28;20020;-60
2023/10/28 02:25:44;;;;;;;32.33;27.42;;;;;;;;;;5089934;28;20043;-59
2023/10/28 02:28:10;;;;;;;29.85;26.63;;;;;;;;;;5091621;28;20021;-59
2023/10/28 02:30:40;;;;;;;29.40;26.48;;;;;;;;;;5089664;28;20020;-58
2023/10/28 02:33:09;;;;;;;30.13;26.95;;;;;;;;;;5091758;28;20404;-59
2023/10/28 02:35:35;;;;;;;32.50;26.80;;;;;;;;;;5089827;28;20532;-58
2023/10/28 02:38:01;;;;;;;32.35;26.90;;;;;;;;;;5090568;28;20027;-60
2023/10/28 02:40:27;;;;;;;31.15;27.60;;;;;;;;;;5090778;28;20032;-60
2023/10/28 02:42:53;;;;;;;29.88;26.67;;;;;;;;;;5091722;28;20077;-59
2023/10/28 02:45:19;;;;;;;30.33;27.05;;;;;;;;;;5092064;28;20062;-60
2023/10/28 02:47:45;;;;;;;30.63;27.38;;;;;;;;;;5091394;28;20489;-60
2023/10/28 02:50:12;;;;;;;31.55;27.38;;;;;;;;;;5091007;28;20374;-61
2023/10/28 02:52:38;;;;;;;29.73;26.73;;;;;;;;;;5091684;28;20043;-61
2023/10/28 02:55:05;;;;;;;31.25;28.05;;;;;;;;;;5091751;28;20367;-61
2023/10/28 02:57:32;;;;;;;32.00;27.42;;;;;;;;;;5091636;28;20024;-59
2023/10/28 02:59:58;;;;;;;31.20;26.63;;;;;;;;;;5091047;28;20020;-57
2023/10/28 03:02:24;;;;;;;29.63;26.67;;;;;;;;;;5090861;28;20079;-60
2023/10/28 03:04:50;;;;;;;30.30;27.23;;;;;;;;;;5091923;28;20024;-59
2023/10/28 03:07:16;;;;;;;30.10;26.05;;;;;;;;;;5091079;28;20405;-60
2023/10/28 03:09:42;;;;;;;31.02;27.75;;;;;;;;;;5091097;28;20043;-58
2023/10/28 03:12:08;;;;;;;28.98;26.17;;;;;;;;;;5090974;28;20111;-60
2023/10/28 03:14:34;;;;;;;31.02;26.55;;;;;;;;;;5090005;28;20020;-59
2023/10/28 03:17:00;;;;;;;28.55;25.52;;;;;;;;;;5092101;28;20103;-58
2023/10/28 03:19:26;;;;;;;29.98;26.85;;;;;;;;;;5091216;28;20447;-60
2023/10/28 03:21:52;;;;;;;29.23;26.15;;;;;;;;;;5090275;28;20035;-57
2023/10/28 03:24:18;;;;;;;28.60;25.60;;;;;;;;;;5090910;28;20027;-61
2023/10/28 03:26:44;;;;;;;30.40;26.35;;;;;;;;;;5090130;28;20567;-61
2023/10/28 03:29:10;;;;;;;28.05;25.15;;;;;;;;;;5090953;28;20115;-61
2023/10/28 03:31:36;;;;;;;28.85;25.63;;;;;;;;;;5090984;28;20119;-60
2023/10/28 03:34:02;;;;;;;28.50;25.45;;;;;;;;;;5090122;28;20020;-61
2023/10/28 03:36:28;;;;;;;27.70;24.92;;;;;;;;;;5091960;28;20028;-61
2023/10/28 03:38:55;;;;;;;27.70;24.90;;;;;;;;;;5090060;28;20042;-60
2023/10/28 03:41:21;;;;;;;28.70;25.70;;;;;;;;;;5090712;28;20489;-60
2023/10/28 03:43:47;;;;;;;30.60;25.20;;;;;;;;;;5090828;28;20044;-60
2023/10/28 03:46:20;;;;;;;28.02;25.00;;;;;;;;;;5090925;28;20016;-60
2023/10/28 03:48:46;;;;;;;28.08;24.65;;;;;;;;;;5089320;28;20024;-59
2023/10/28 03:51:12;;;;;;;27.50;24.70;;;;;;;;;;5090867;28;20112;-59
2023/10/28 03:53:38;;;;;;;27.75;24.85;;;;;;;;;;5092804;28;20051;-60
2023/10/28 03:56:05;;;;;;;28.45;25.55;;;;;;;;;;5094370;28;20040;-62
2023/10/28 03:58:32;;;;;;;27.65;24.48;;;;;;;;;;5094969;28;20020;-59
2023/10/28 04:00:59;;;;;;;27.80;24.75;;;;;;;;;;5094147;28;20023;-60
2023/10/28 04:03:25;;;;;;;29.98;22.20;;;;;;;;;;5095296;28;20075;-61
2023/10/28 04:05:53;;;;;;;26.60;23.50;;;;;;;;;;5093648;28;20016;-61
2023/10/28 04:08:19;;;;;;;26.43;23.50;;;;;;;;;;5095196;28;20032;-60
2023/10/28 04:10:46;;;;;;;27.35;22.58;;;;;;;;;;5093271;28;20266;-61
2023/10/28 04:13:12;;;;;;;25.00;21.80;;;;;;;;;;5094616;28;20413;-60
2023/10/28 04:15:39;;;;;;;26.25;22.45;;;;;;;;;;5095308;28;20093;-59
2023/10/28 04:18:05;;;;;;;24.63;22.05;;;;;;;;;;5093525;28;20107;-57
2023/10/28 04:20:32;;;;;;;23.83;21.17;;;;;;;;;;5094583;28;20031;-58
2023/10/28 04:22:58;;;;;;;26.13;21.70;;;;;;;;;;5093313;28;20020;-58
2023/10/28 04:25:24;;;;;;;25.35;21.45;;;;;;;;;;5094265;28;20520;-61
2023/10/28 04:27:50;;;;;;;29.85;21.60;;;;;;;;;;5092958;28;20032;-61
2023/10/28 04:30:16;;;;;;;23.52;21.05;;;;;;;;;;5093196;28;20016;-60
2023/10/28 04:32:44;;;;;;;27.13;21.88;;;;;;;;;;5094579;28;20024;-57
2023/10/28 04:35:10;;;;;;;24.88;21.00;;;;;;;;;;5094103;28;20043;-60
2023/10/28 04:37:36;;;;;;;23.42;20.83;;;;;;;;;;5094296;28;20020;-59
2023/10/28 04:40:06;;;;;;;23.35;20.88;;;;;;;;;;5093784;28;20077;-61
2023/10/28 04:42:32;;;;;;;22.70;20.45;;;;;;;;;;5094073;28;20107;-57
2023/10/28 04:44:58;;;;;;;23.73;21.02;;;;;;;;;;5084434;28;20029;-60
2023/10/28 04:47:24;;;;;;;32.03;21.80;;;;;;;;;;5073480;28;20028;-60
2023/10/28 04:49:50;;;;;;;24.70;21.55;;;;;;;;;;5071742;28;20033;-59
2023/10/28 04:52:16;;;;;;;25.15;21.75;;;;;;;;;;5073222;28;20402;-59
2023/10/28 04:54:42;;;;;;;23.70;21.10;;;;;;;;;;5073224;28;20031;-59
2023/10/28 04:57:09;;;;;;;24.20;21.55;;;;;;;;;;5071561;28;20025;-61
2023/10/28 04:59:35;;;;;;;24.65;20.95;;;;;;;;;;5073104;28;20505;-60
2023/10/28 05:02:01;;;;;;;27.08;23.50;;;;;;;;;;5072873;28;20033;-57
2023/10/28 05:04:27;;;;;;;23.88;21.40;;;;;;;;;;5072318;28;20692;-57
2023/10/28 05:06:53;;;;;;;25.00;21.60;;;;;;;;;;5073165;28;20055;-60
2023/10/28 05:09:20;;;;;;;25.95;21.65;;;;;;;;;;5073611;28;20044;-60
2023/10/28 05:12:00;;;;;;;25.17;22.55;;;;;;;;;;5073018;28;20024;-59
2023/10/28 05:14:26;;;;;;;23.77;21.38;;;;;;;;;;5072720;28;20021;-59
2023/10/28 05:16:55;;;;;;;23.55;21.13;;;;;;;;;;5072778;28;20043;-60
2023/10/28 05:19:22;;;;;;;24.77;21.90;;;;;;;;;;5072204;28;20025;-58
2023/10/28 05:21:48;;;;;;;25.17;22.65;;;;;;;;;;5072825;28;20124;-56
2023/10/28 05:24:15;;;;;;;23.83;21.17;;;;;;;;;;5072871;28;20461;-58
2023/10/28 05:26:42;;;;;;;25.92;21.23;;;;;;;;;;5073671;28;20037;-58
2023/10/28 05:29:08;;;;;;;23.83;21.20;;;;;;;;;;5074521;28;20023;-61
2023/10/28 05:31:35;;;;;;;25.40;21.10;;;;;;;;;;5073934;28;20040;-59
2023/10/28 05:34:02;;;;;;;23.58;21.10;;;;;;;;;;5073567;28;20436;-58
2023/10/28 05:36:28;;;;;;;24.38;21.58;;;;;;;;;;5072842;28;20551;-58
2023/10/28 05:38:54;;;;;;;24.05;21.08;;;;;;;;;;5073985;28;20024;-56
2023/10/28 05:41:21;;;;;;;22.77;20.58;;;;;;;;;;5072937;28;20502;-60
2023/10/28 05:43:48;;;;;;;23.50;20.98;;;;;;;;;;5073712;28;20541;-61
2023/10/28 05:46:14;;;;;;;23.80;21.08;;;;;;;;;;5073791;28;20103;-59
2023/10/28 05:48:40;;;;;;;23.52;21.00;;;;;;;;;;5073763;28;20044;-59
2023/10/28 05:51:09;;;;;;;22.88;20.48;;;;;;;;;;5071466;28;20022;-61
2023/10/28 05:53:35;;;;;;;26.30;21.20;;;;;;;;;;5073782;28;20104;-57
2023/10/28 05:56:01;;;;;;;25.08;22.35;;;;;;;;;;5071796;28;20088;-59
2023/10/28 05:58:27;;;;;;;23.42;20.90;;;;;;;;;;5073363;28;20091;-59
2023/10/28 06:00:54;;;;;;;23.20;20.90;;;;;;;;;;5073319;28;20020;-62
2023/10/28 06:03:20;;;;;;;23.33;20.80;;;;;;;;;;5072201;28;20031;-58
2023/10/28 06:05:46;;;;;;;25.10;21.10;;;;;;;;;;5073570;28;20032;-58
2023/10/28 06:08:13;;;;;;;29.40;21.73;;;;;;;;;;5073231;28;20081;-58
2023/10/28 06:10:39;;;;;;;24.00;21.60;;;;;;;;;;5071695;28;20064;-58
2023/10/28 06:13:06;;;;;;;24.17;21.30;;;;;;;;;;5073286;28;20032;-59
2023/10/28 06:15:32;;;;;;;23.20;20.88;;;;;;;;;;5072743;28;20082;-59
2023/10/28 06:17:58;;;;;;;23.08;20.63;;;;;;;;;;5073072;28;20437;-59
2023/10/28 06:20:24;;;;;;;25.73;23.00;;;;;;;;;;5072848;28;20036;-60
2023/10/28 06:22:52;;;;;;;24.10;21.60;;;;;;;;;;5072647;28;20103;-57
2023/10/28 06:25:18;;;;;;;28.85;22.02;;;;;;;;;;5073261;28;20039;-60
2023/10/28 06:27:44;;;;;;;24.83;22.23;;;;;;;;;;5072410;28;20017;-59
2023/10/28 06:30:11;;;;;;;24.58;21.55;;;;;;;;;;5072329;28;20494;-56
2023/10/28 06:32:38;;;;;;;24.52;22.13;;;;;;;;;;5072776;28;20111;-60
2023/10/28 06:35:05;;;;;;;24.67;22.17;;;;;;;;;;5079916;28;20070;-59
2023/10/28 06:37:31;;;;;;;23.65;21.35;;;;;;;;;;5079113;28;20048;-60
2023/10/28 06:39:58;;;;;;;25.85;23.08;;;;;;;;;;5094428;28;20028;-57
2023/10/28 06:42:24;;;;;;;31.30;25.00;;;;;;;;;;5093441;28;20097;-59
2023/10/28 06:44:50;;;;;;;25.23;21.88;;;;;;;;;;5093868;28;20024;-59
2023/10/28 06:47:16;;;;;;;25.15;22.48;;;;;;;;;;5093582;28;20619;-56
2023/10/28 06:49:42;;;;;;;24.05;21.65;;;;;;;;;;5093273;28;20020;-61
2023/10/28 06:52:08;;;;;;;25.25;22.17;;;;;;;;;;5077160;28;20052;-56
2023/10/28 06:54:34;;;;;;;24.77;22.17;;;;;;;;;;5073179;28;20107;-62
2023/10/28 06:57:00;;;;;;;23.27;20.95;;;;;;;;;;5074003;28;20121;-59
2023/10/28 06:59:26;;;;;;;26.45;22.67;;;;;;;;;;5072966;28;20028;-60
2023/10/28 07:01:53;;;;;;;24.40;21.90;;;;;;;;;;5072969;28;20061;-60
2023/10/28 07:04:19;;;;;;;25.15;22.23;;;;;;;;;;5072620;28;20020;-60
2023/10/28 07:06:45;;;;;;;24.00;21.60;;;;;;;;;;5073404;28;20016;-58
2023/10/28 07:09:11;;;;;;;24.98;22.35;;;;;;;;;;5089395;28;20450;-59
2023/10/28 07:11:38;;;;;;;24.63;22.30;;;;;;;;;;5093596;28;20035;-60
2023/10/28 07:14:04;;;;;;;24.25;21.75;;;;;;;;;;5093126;28;20025;-59
2023/10/28 07:16:31;;;;;;;24.95;22.42;;;;;;;;;;5093547;28;20120;-58
2023/10/28 07:18:57;;;;;;;24.27;21.88;;;;;;;;;;5093820;28;20137;-59
2023/10/28 07:21:23;;;;;;;24.58;22.17;;;;;;;;;;5092268;28;20024;-60
2023/10/28 07:23:49;;;;;;;25.38;22.52;;;;;;;;;;5093798;28;20475;-59
2023/10/28 07:26:15;;;;;;;24.98;22.40;;;;;;;;;;5094852;28;20379;-59
2023/10/28 07:28:41;;;;;;;24.98;22.48;;;;;;;;;;5097691;28;20016;-60
2023/10/28 07:31:07;;;;;;;25.23;22.73;;;;;;;;;;5097730;28;20034;-59
2023/10/28 07:33:34;;;;;;;25.48;22.88;;;;;;;;;;5097623;28;20012;-60
2023/10/28 07:36:02;;;;;;;26.20;23.40;;;;;;;;;;5096359;28;20020;-61
2023/10/28 07:38:28;;;;;;;25.63;23.10;;;;;;;;;;5097653;28;20142;-61
2023/10/28 07:40:55;;;;;;;26.00;23.58;;;;;;;;;;5094732;28;20106;-60
2023/10/28 07:43:21;;;;;;;26.20;23.55;;;;;;;;;;5096033;28;20027;-59
2023/10/28 07:45:47;;;;;;;26.83;24.30;;;;;;;;;;5095754;28;20096;-58
2023/10/28 07:48:14;;;;;;;28.00;25.10;;;;;;;;;;5096386;28;20486;-60
2023/10/28 07:50:40;;;;;;;26.15;23.60;;;;;;;;;;5092154;28;20054;-60
2023/10/28 07:53:06;;;;;;;26.45;23.88;;;;;;;;;;5091359;28;20069;-61
2023/10/28 07:55:33;;;;;;;25.85;23.25;;;;;;;;;;5091358;28;20024;-54
2023/10/28 07:57:59;;;;;;;25.10;22.65;;;;;;;;;;5091411;28;20389;-55
2023/10/28 08:00:26;;;;;;;26.17;23.15;;;;;;;;;;5091182;28;20050;-52
2023/10/28 08:02:52;;;;;;;26.20;23.50;;;;;;;;;;5091342;28;20088;-54
2023/10/28 08:05:18;;;;;;;25.85;23.35;;;;;;;;;;5090786;28;20452;-55
2023/10/28 08:07:50;;;;;;;24.88;22.52;;;;;;;;;;5091108;28;20048;-54
2023/10/28 08:10:22;;;;;;;25.17;22.67;;;;;;;;;;5091044;28;20031;-52
2023/10/28 08:12:49;;;;;;;24.20;21.88;;;;;;;;;;5091112;28;20624;-52
2023/10/28 08:15:15;;;;;;;24.52;22.13;;;;;;;;;;5091024;28;20032;-52
2023/10/28 08:17:41;;;;;;;23.63;21.33;;;;;;;;;;5091076;28;20107;-52
2023/10/28 08:20:08;;;;;;;23.42;20.98;;;;;;;;;;5090538;28;20107;-52
2023/10/28 08:22:35;;;;;;;22.67;20.38;;;;;;;;;;5087522;28;20052;-50
2023/10/28 08:25:04;;;;;;;21.95;19.85;;;;;;;;;;5087706;28;20031;-50
2023/10/28 08:27:32;;;;;;;21.80;19.55;;;;;;;;;;5091258;28;20020;-52
2023/10/28 08:29:58;;;;;;;21.92;19.63;;;;;;;;;;5090809;28;20029;-51
2023/10/28 08:32:24;;;;;;;22.38;20.17;;;;;;;;;;5090709;28;20382;-54
2023/10/28 08:34:51;;;;;;;21.85;19.48;;;;;;;;;;5090759;28;20460;-51
2023/10/28 08:37:18;;;;;;;22.15;19.95;;;;;;;;;;5088514;28;20016;-50
2023/10/28 08:39:45;;;;;;;21.60;19.40;;;;;;;;;;5090566;28;20173;-52
2023/10/28 08:42:11;;;;;;;21.17;19.00;;;;;;;;;;5090771;28;20401;-49
2023/10/28 08:44:37;;;;;;;21.98;19.88;;;;;;;;;;5090571;28;20089;-50
2023/10/28 08:47:06;;;;;;;21.65;19.48;;;;;;;;;;5090619;28;20016;-53
2023/10/28 08:49:35;;;;;;;21.23;18.98;;;;;;;;;;5089046;28;20020;-50
2023/10/28 08:52:02;;;;;;;21.10;18.90;;;;;;;;;;5087453;28;20476;-53
2023/10/28 08:54:28;;;;;;;20.58;18.48;;;;;;;;;;5087429;28;20569;-52
2023/10/28 08:56:59;;;;;;;20.27;18.17;;;;;;;;;;5088967;28;20059;-53
2023/10/28 08:59:26;;;;;;;19.60;16.50;;;;;;;;;;5089143;28;20153;-54
2023/10/28 09:01:52;;;;;;;18.30;16.30;;;;;;;;;;5089109;28;20024;-58
2023/10/28 09:04:21;;;;;;;17.70;15.80;;;;;;;;;;5089402;28;20627;-54
2023/10/28 09:06:48;;;;;;;17.98;14.52;;;;;;;;;;5090128;28;20477;-55
2023/10/28 09:09:16;;;;;;;18.60;13.82;;;;;;;;;;5089865;28;20032;-50
2023/10/28 09:11:42;;;;;;;;;;;;;;;;;;5090235;28;20386;-53
2023/10/28 09:14:09;;;;;;;17.23;12.35;;;;;;;;;;5090036;28;19910;-56
2023/10/28 09:16:35;;;;;;;16.67;12.48;;;;;;;;;;5089791;28;20028;-55
2023/10/28 09:19:05;;;;;;;16.63;11.25;;;;;;;;;;5089484;28;20027;-55
2023/10/28 09:21:31;;;;;;;16.98;11.75;;;;;;;;;;5089913;28;20024;-54
2023/10/28 09:24:00;;;;;;;15.10;10.57;;;;;;;;;;5089829;28;20020;-51
2023/10/28 09:26:28;;;;;;;20.85;10.57;;;;;;;;;;5089696;28;20038;-58
2023/10/28 09:28:54;;;;;;;16.27;10.15;;;;;;;;;;5089865;28;20024;-56
2023/10/28 09:31:24;;;;;;;15.50;8.90;;;;;;;;;;5074908;28;20044;-55
2023/10/28 09:33:50;;;;;;;15.32;8.85;;;;;;;;;;5069223;28;20047;-54
2023/10/28 09:36:16;;;;;;;18.33;10.85;;;;;;;;;;5088853;28;20026;-55
2023/10/28 09:38:45;;;;;;;19.27;11.30;;;;;;;;;;5088411;28;20114;-52
2023/10/28 09:41:11;;;;;;;16.13;10.68;;;;;;;;;;5076374;28;20059;-54
2023/10/28 09:43:37;;;;;;;16.30;12.13;;;;;;;;;;5089172;28;20072;-55
2023/10/28 09:46:05;;;;;;;17.92;13.27;;;;;;;;;;5084724;28;20513;-55
2023/10/28 09:48:32;;;;;;;17.70;11.98;;;;;;;;;;5081010;28;20027;-54
2023/10/28 09:50:58;;;;;;;16.10;12.75;;;;;;;;;;5081451;28;20100;-51
2023/10/28 09:53:30;;;;;;;16.58;13.52;;;;;;;;;;5068674;28;20032;-54
2023/10/28 09:55:57;;;;;;;16.40;13.38;;;;;;;;;;5068734;28;20546;-52
2023/10/28 09:58:28;;;;;;;16.77;13.63;;;;;;;;;;5068804;28;20036;-54
2023/10/28 10:01:12;;;;;;;17.88;13.57;;;;;;;;;;5068436;28;20028;-53
2023/10/28 10:04:08;;;;;;;16.60;14.18;;;;;;;;;;5068631;28;20112;-52
2023/10/28 10:06:34;;;;;;;16.48;14.02;;;;;;;;;;5031190;28;20044;-55
2023/10/28 10:09:00;;;;;;;17.73;15.82;;;;;;;;;;5068880;28;20021;-56
2023/10/28 10:11:27;;;;;;;17.40;15.20;;;;;;;;;;5068397;28;20013;-54
2023/10/28 10:13:56;;;;;;;17.30;14.52;;;;;;;;;;5075128;28;20036;-56
2023/10/28 10:16:28;;;;;;;17.75;14.80;;;;;;;;;;5079201;28;20035;-52
2023/10/28 10:18:55;;;;;;;17.80;14.57;;;;;;;;;;5078682;28;20020;-57
2023/10/28 10:21:22;;;;;;;17.38;14.50;;;;;;;;;;5076948;28;20021;-54
2023/10/28 10:23:54;;;;;;;17.00;15.20;;;;;;;;;;5073535;28;20013;-54
2023/10/28 10:26:25;;;;;;;18.45;15.35;;;;;;;;;;5069856;28;20105;-56
2023/10/28 10:28:52;;;;;;;21.85;19.30;;;;;;;;;;5084994;28;20069;-55
2023/10/28 10:31:20;;;;;;;19.90;17.90;;;;;;;;;;5078666;28;20031;-56
2023/10/28 10:33:46;;;;;;;20.40;18.23;;;;;;;;;;5076913;28;20085;-55
2023/10/28 10:36:17;;;;;;;20.30;18.30;;;;;;;;;;5086961;28;20040;-57
2023/10/28 10:38:45;;;;;;;19.30;17.40;;;;;;;;;;5083921;28;20020;-54
2023/10/28 10:41:11;;;;;;;19.65;17.60;;;;;;;;;;5076030;28;20390;-56
2023/10/28 10:43:38;;;;;;;18.40;16.50;;;;;;;;;;5075010;28;20047;-56
2023/10/28 10:46:04;;;;;;;18.95;17.05;;;;;;;;;;5068361;28;20024;-56
2023/10/28 10:48:33;;;;;;;18.27;16.35;;;;;;;;;;5070704;28;20077;-55
2023/10/28 10:51:00;;;;;;;19.63;17.52;;;;;;;;;;5076259;28;20027;-54
2023/10/28 10:53:26;;;;;;;18.38;16.48;;;;;;;;;;5068294;28;20415;-55
2023/10/28 10:55:52;;;;;;;19.73;17.35;;;;;;;;;;5068078;28;20055;-56
2023/10/28 10:58:18;;;;;;;18.48;16.58;;;;;;;;;;5074689;28;20428;-55
2023/10/28 11:00:52;;;;;;;19.60;17.00;;;;;;;;;;5080461;28;20020;-57
2023/10/28 11:03:18;;;;;;;19.13;16.95;;;;;;;;;;5091507;28;20035;-53
2023/10/28 11:05:44;;;;;;;19.80;17.80;;;;;;;;;;5088596;28;20028;-55
2023/10/28 11:08:11;;;;;;;19.30;17.27;;;;;;;;;;5083926;28;20064;-52
2023/10/28 11:10:37;;;;;;;19.58;17.58;;;;;;;;;;5091754;28;20039;-55
2023/10/28 11:13:04;;;;;;;19.50;17.48;;;;;;;;;;5092566;28;20107;-52
2023/10/28 11:15:32;;;;;;;20.20;17.67;;;;;;;;;;5092346;28;20077;-56
2023/10/28 11:17:58;;;;;;;18.45;16.63;;;;;;;;;;5092096;28;20024;-56
2023/10/28 11:20:24;;;;;;;18.80;16.85;;;;;;;;;;5089461;28;20035;-55
2023/10/28 11:22:50;;;;;;;20.23;17.35;;;;;;;;;;5090092;28;20111;-55
2023/10/28 11:25:17;;;;;;;19.58;17.58;;;;;;;;;;5091505;28;20115;-53
2023/10/28 11:27:44;;;;;;;19.90;17.90;;;;;;;;;;5091587;28;20012;-52
2023/10/28 11:30:10;;;;;;;18.48;16.45;;;;;;;;;;5089553;28;20020;-56
2023/10/28 11:32:40;;;;;;;19.05;17.05;;;;;;;;;;5091072;28;20039;-52
2023/10/28 11:35:06;;;;;;;18.70;16.80;;;;;;;;;;5091912;28;20024;-53
2023/10/28 11:37:32;;;;;;;19.20;17.20;;;;;;;;;;5092000;28;20053;-53
2023/10/28 11:39:58;;;;;;;19.65;17.70;;;;;;;;;;5092012;28;20564;-54
2023/10/28 11:42:25;;;;;;;19.45;17.50;;;;;;;;;;5091820;28;20031;-52
2023/10/28 11:44:51;;;;;;;19.13;17.08;;;;;;;;;;5091664;28;20024;-55
2023/10/28 11:47:19;;;;;;;21.25;17.13;;;;;;;;;;5091801;28;20020;-54
2023/10/28 11:49:46;;;;;;;18.77;16.88;;;;;;;;;;5091955;28;20470;-53
2023/10/28 11:52:12;;;;;;;32.10;18.35;;;;;;;;;;5091715;28;20028;-55
2023/10/28 11:54:39;;;;;;;18.98;17.00;;;;;;;;;;5091458;28;20024;-55
2023/10/28 11:57:05;;;;;;;18.05;16.15;;;;;;;;;;5091837;28;20071;-52
2023/10/28 11:59:31;;;;;;;18.58;16.67;;;;;;;;;;5089857;28;20028;-54
2023/10/28 12:01:58;;;;;;;19.10;17.10;;;;;;;;;;5091772;28;20046;-54
2023/10/28 12:04:25;;;;;;;17.85;15.95;;;;;;;;;;5091233;28;20020;-53
2023/10/28 12:06:51;;;;;;;17.83;15.93;;;;;;;;;;5091500;28;20394;-55
2023/10/28 12:09:17;;;;;;;17.95;16.15;;;;;;;;;;5091468;28;20448;-55
2023/10/28 12:11:43;;;;;;;18.30;16.50;;;;;;;;;;5091355;28;20127;-56
2023/10/28 12:14:10;;;;;;;18.70;16.80;;;;;;;;;;5090878;28;20032;-49
2023/10/28 12:16:37;;;;;;;18.30;16.40;;;;;;;;;;5091676;28;20028;-54
2023/10/28 12:19:05;;;;;;;18.30;16.40;;;;;;;;;;5091526;28;20028;-56
2023/10/28 12:21:31;;;;;;;20.10;16.10;;;;;;;;;;5090956;28;20093;-54
2023/10/28 12:23:57;;;;;;;18.67;16.02;;;;;;;;;;5091096;28;20030;-52
2023/10/28 12:26:23;;;;;;;18.45;16.42;;;;;;;;;;5089636;28;20179;-53
2023/10/28 12:28:49;;;;;;;18.73;16.73;;;;;;;;;;5091336;28;20032;-54
2023/10/28 12:31:16;;;;;;;17.95;15.55;;;;;;;;;;5090886;28;20065;-55
2023/10/28 12:33:42;;;;;;;18.20;15.57;;;;;;;;;;5090982;28;20138;-56
2023/10/28 12:36:10;;;;;;;17.63;15.70;;;;;;;;;;5073019;28;20474;-54
2023/10/28 12:38:36;;;;;;;18.23;15.63;;;;;;;;;;5069364;28;20035;-57
2023/10/28 12:41:03;;;;;;;18.95;15.80;;;;;;;;;;5070553;28;20386;-52
2023/10/28 12:43:29;;;;;;;17.52;15.63;;;;;;;;;;5070592;28;20020;-55
2023/10/28 12:45:55;;;;;;;17.77;15.35;;;;;;;;;;5070496;28;20024;-54
2023/10/28 12:48:21;;;;;;;16.60;14.65;;;;;;;;;;5070394;28;20028;-54
2023/10/28 12:50:47;;;;;;;16.40;13.82;;;;;;;;;;5069079;28;20017;-49
2023/10/28 12:53:13;;;;;;;16.23;13.38;;;;;;;;;;5070492;28;20037;-57
2023/10/28 12:55:41;;;;;;;17.13;13.48;;;;;;;;;;5070481;28;20033;-55
2023/10/28 12:58:10;;;;;;;15.23;11.40;;;;;;;;;;5070510;28;20078;-51
2023/10/28 13:00:37;;;;;;;15.02;10.20;;;;;;;;;;5070175;28;20071;-55
2023/10/28 13:03:04;;;;;;;15.02;10.75;;;;;;;;;;5070450;28;20441;-51
2023/10/28 13:05:30;;;;;;;17.05;10.50;;;;;;;;;;5070020;28;20098;-53
2023/10/28 13:07:56;;;;;;;15.23;9.80;;;;;;;;;;5070239;28;20423;-56
2023/10/28 13:10:24;;;;;;;15.45;9.80;;;;;;;;;;5070303;28;20025;-56
2023/10/28 13:12:50;;;;;;;15.15;9.00;;;;;;;;;;5070353;28;20478;-56
2023/10/28 13:15:17;;;;;;;16.00;8.70;;;;;;;;;;5069677;28;20112;-57
2023/10/28 13:17:43;;;;;;;15.10;9.13;;;;;;;;;;5070255;28;20187;-56
2023/10/28 13:20:09;;;;;;;15.50;9.40;;;;;;;;;;5069523;28;20048;-55
2023/10/28 13:22:35;;;;;;;15.93;9.20;;;;;;;;;;5088562;28;20036;-56
2023/10/28 13:25:01;;;;;;;16.95;9.70;;;;;;;;;;5088897;28;20107;-56
2023/10/28 13:27:27;;;;;;;15.52;9.40;;;;;;;;;;5088391;28;20043;-56
2023/10/28 13:29:53;;;;;;;15.63;9.10;;;;;;;;;;5089574;28;20112;-57
2023/10/28 13:32:19;;;;;;;14.68;8.68;;;;;;;;;;5089854;28;20081;-56
2023/10/28 13:34:45;;;;;;;15.55;9.13;;;;;;;;;;5089316;28;20016;-53
2023/10/28 13:37:11;;;;;;;15.10;9.13;;;;;;;;;;5089702;28;20067;-53
2023/10/28 13:39:37;;;;;;;15.05;9.00;;;;;;;;;;5082324;28;20028;-51
2023/10/28 13:42:04;;;;;;;15.35;8.93;;;;;;;;;;5071786;28;20483;-52
2023/10/28 13:44:30;;;;;;;14.95;8.43;;;;;;;;;;5068926;28;20029;-52
2023/10/28 13:46:56;;;;;;;16.83;8.80;;;;;;;;;;5085405;28;20470;-55
2023/10/28 13:49:23;;;;;;;15.15;9.23;;;;;;;;;;5089354;28;20389;-52
2023/10/28 13:51:49;;;;;;;17.85;10.50;;;;;;;;;;5089950;28;20016;-53
2023/10/28 13:54:16;;;;;;;16.85;13.20;;;;;;;;;;5089667;28;20039;-52
2023/10/28 13:56:42;;;;;;;16.80;14.00;;;;;;;;;;5089592;28;20024;-55
2023/10/28 13:59:08;;;;;;;19.88;15.63;;;;;;;;;;5089552;28;20444;-57
2023/10/28 14:01:34;;;;;;;19.00;16.38;;;;;;;;;;5089087;28;20493;-54
2023/10/28 14:04:00;;;;;;;19.77;14.95;;;;;;;;;;5075235;28;20170;-52
2023/10/28 14:06:26;;;;;;;18.33;13.65;;;;;;;;;;5068574;28;20024;-52
2023/10/28 14:08:53;;;;;;;16.92;12.45;;;;;;;;;;5068976;28;20016;-54
2023/10/28 14:11:23;;;;;;;18.63;13.00;;;;;;;;;;5069018;28;20482;-53
2023/10/28 14:13:49;;;;;;;19.33;12.95;;;;;;;;;;5068776;28;20475;-55
2023/10/28 14:16:19;;;;;;;16.73;13.23;;;;;;;;;;5068733;28;20098;-55